ilmateenistus.ee keskkonnaagentuur.ee
EETN Tallinna lennuväli
FTEO31 EETN 120500
TAF EETN 120505Z 1206/1306 22008KT 9999 SCT020 BECMG 1207/1209
    SCT030CB TEMPO 1209/1218 SHRA SCT012 BKN020CB TEMPO 1210/1216 VRB20KT
    2000 TSRA PROB40 TEMPO 1221/1304 3000 BR BKN004=

METAR EETN 120450Z 23005KT CAVOK 13/11 Q1015 NOSIG=
Tallinna lennuväli
EEKA Kärdla lennuväli
METAR EEKA 120450Z NIL=
Kärdla lennuväli
EEKE Kuressaare lennuväli
SPECI EEKE 120501Z AUTO 21006KT 180V240 9999NDV SCT003 15/14 Q1016=
Kuressaare lennuväli
EEPU Pärnu lennuväli
METAR EEPU 120450Z NIL=
Pärnu lennuväli
EETU Tartu lennuväli
METAR EETU 120450Z AUTO 23007KT 9999 NCD 14/11 Q1017=
Tartu lennuväli
EEEI Ämari lennuväli
METAR EEEI 120450Z 20006KT CAVOK 14/12 Q1016 NOSIG=
Ämari lennuväli